createdAt,value
2022-08-05T00:00:55.283Z,28.88
2022-08-05T00:03:27.393Z,28.86
2022-08-05T00:06:04.935Z,28.85
2022-08-05T00:08:44.526Z,28.83
2022-08-05T00:11:24.011Z,28.83
2022-08-05T00:13:57.078Z,28.80
2022-08-05T00:16:36.108Z,28.79
2022-08-05T00:19:03.095Z,28.77
2022-08-05T00:21:30.667Z,28.75
2022-08-05T00:24:10.508Z,28.74
2022-08-05T00:26:37.583Z,28.68
2022-08-05T00:29:03.922Z,28.57
2022-08-05T00:31:52.909Z,28.45
2022-08-05T00:34:53.546Z,28.33
2022-08-05T00:37:10.725Z,28.25
2022-08-05T00:39:41.518Z,28.17
2022-08-05T00:42:31.968Z,28.09
2022-08-05T00:44:59.317Z,28.02
2022-08-05T00:47:25.828Z,27.93
2022-08-05T00:49:52.135Z,27.85
2022-08-05T00:52:18.552Z,27.77
2022-08-05T00:54:54.979Z,27.69
2022-08-05T00:57:22.879Z,27.63
2022-08-05T00:59:51.855Z,27.57
2022-08-05T01:02:18.249Z,27.50
2022-08-05T01:04:44.543Z,27.43
2022-08-05T01:07:17.884Z,27.37
2022-08-05T01:09:44.466Z,27.33
2022-08-05T01:12:18.797Z,27.30
2022-08-05T01:14:45.585Z,27.26
2022-08-05T01:17:12.308Z,27.20
2022-08-05T01:20:02.424Z,27.16
2022-08-05T01:22:27.797Z,27.12
2022-08-05T01:24:54.632Z,27.06
2022-08-05T01:27:22.125Z,27.02
2022-08-05T01:29:48.587Z,26.98
2022-08-05T01:32:18.670Z,26.93
2022-08-05T01:34:45.159Z,26.88
2022-08-05T01:37:18.030Z,26.86
2022-08-05T01:39:51.314Z,26.84
2022-08-05T01:42:17.749Z,26.80
2022-08-05T01:44:44.083Z,26.80
2022-08-05T01:47:20.204Z,26.77
2022-08-05T01:50:01.652Z,26.73
2022-08-05T01:52:29.692Z,26.71
2022-08-05T01:54:56.664Z,26.69
2022-08-05T01:58:11.253Z,26.66
2022-08-05T02:00:11.919Z,26.62
2022-08-05T02:02:38.618Z,26.60
2022-08-05T02:05:13.655Z,26.56
2022-08-05T02:07:41.787Z,26.55
2022-08-05T02:10:28.105Z,26.51
2022-08-05T02:12:54.937Z,26.48
2022-08-05T02:15:21.313Z,26.47
2022-08-05T02:18:31.342Z,26.45
2022-08-05T02:20:33.919Z,26.44
2022-08-05T02:23:05.567Z,26.42
2022-08-05T02:25:49.453Z,26.40
2022-08-05T02:28:28.352Z,26.39
2022-08-05T02:30:56.817Z,26.37
2022-08-05T02:33:24.543Z,26.34
2022-08-05T02:36:02.882Z,26.31
2022-08-05T02:38:35.243Z,26.24
2022-08-05T02:41:06.417Z,26.23
2022-08-05T02:44:06.029Z,26.23
2022-08-05T02:46:30.381Z,26.26
2022-08-05T02:48:56.825Z,26.29
2022-08-05T02:51:42.381Z,26.32
2022-08-05T02:54:09.489Z,26.35
2022-08-05T02:56:56.289Z,26.37
2022-08-05T02:59:26.935Z,26.38
2022-08-05T03:01:54.278Z,26.39
2022-08-05T03:04:23.034Z,26.41
2022-08-05T03:06:55.672Z,26.41
2022-08-05T03:09:36.126Z,26.41
2022-08-05T03:12:04.249Z,26.41
2022-08-05T03:14:30.672Z,26.40
2022-08-05T03:16:57.132Z,26.41
2022-08-05T03:19:34.108Z,26.40
2022-08-05T03:22:02.460Z,26.39
2022-08-05T03:24:31.084Z,26.39
2022-08-05T03:26:57.470Z,26.38
2022-08-05T03:29:23.757Z,26.37
2022-08-05T03:31:57.307Z,26.37
2022-08-05T03:34:27.364Z,26.35
2022-08-05T03:36:55.186Z,26.34
2022-08-05T03:39:26.739Z,26.32
2022-08-05T03:41:53.722Z,26.31
2022-08-05T03:44:22.698Z,26.29
2022-08-05T03:46:49.199Z,26.27
2022-08-05T03:49:15.743Z,26.27
2022-08-05T03:52:38.780Z,26.26
2022-08-05T03:56:01.037Z,26.25
2022-08-05T03:57:16.068Z,26.23
2022-08-05T03:59:46.856Z,26.22
2022-08-05T04:02:38.414Z,26.22
2022-08-05T04:05:05.800Z,26.22
2022-08-05T04:07:36.099Z,26.21
2022-08-05T04:10:23.207Z,26.19
2022-08-05T04:12:49.540Z,26.20
2022-08-05T04:15:16.848Z,26.18
2022-08-05T04:17:56.199Z,26.19
2022-08-05T04:20:24.261Z,26.18
2022-08-05T04:22:50.856Z,26.18
2022-08-05T04:25:17.243Z,26.18
2022-08-05T04:27:57.357Z,26.18
2022-08-05T04:30:26.580Z,26.17
2022-08-05T04:32:53.031Z,26.18
2022-08-05T04:35:19.906Z,26.17
2022-08-05T04:38:02.528Z,26.17
2022-08-05T04:40:32.905Z,26.16
2022-08-05T04:43:00.113Z,26.15
2022-08-05T04:45:47.872Z,26.15
2022-08-05T04:48:18.743Z,26.15
2022-08-05T04:51:01.932Z,26.16
2022-08-05T04:53:36.524Z,26.14
2022-08-05T04:56:33.192Z,26.14
2022-08-05T04:58:51.892Z,26.13
2022-08-05T05:02:05.827Z,26.13
2022-08-05T05:04:05.786Z,26.13
2022-08-05T05:06:40.614Z,26.11
2022-08-05T05:09:13.245Z,26.12
2022-08-05T05:11:52.909Z,26.11
2022-08-05T05:14:31.605Z,26.11
2022-08-05T05:16:58.738Z,26.11
2022-08-05T05:19:27.301Z,26.10
2022-08-05T05:21:55.538Z,26.11
2022-08-05T05:24:22.042Z,26.11
2022-08-05T05:26:48.359Z,26.12
2022-08-05T05:29:18.289Z,26.12
2022-08-05T05:31:46.263Z,26.13
2022-08-05T05:34:13.058Z,26.12
2022-08-05T05:36:44.047Z,26.12
2022-08-05T05:39:13.531Z,26.12
2022-08-05T05:41:41.897Z,26.13
2022-08-05T05:44:26.988Z,26.13
2022-08-05T05:46:55.266Z,26.14
2022-08-05T05:49:24.343Z,26.16
2022-08-05T05:51:50.921Z,26.17
2022-08-05T05:54:20.064Z,26.20
2022-08-05T05:56:46.467Z,26.20
2022-08-05T05:59:13.762Z,26.21
2022-08-05T06:01:40.280Z,26.21
2022-08-05T06:04:06.847Z,26.19
2022-08-05T06:06:34.753Z,26.19
2022-08-05T06:09:01.759Z,26.19
2022-08-05T06:11:30.350Z,26.19
2022-08-05T06:13:56.756Z,26.18
2022-08-05T06:16:28.692Z,26.18
2022-08-05T06:18:59.976Z,26.18
2022-08-05T06:21:35.773Z,26.18
2022-08-05T06:24:04.240Z,26.18
2022-08-05T06:26:33.801Z,26.18
2022-08-05T06:29:03.469Z,26.19
2022-08-05T06:31:33.662Z,26.19
2022-08-05T06:34:06.956Z,26.21
2022-08-05T06:36:55.331Z,26.22
2022-08-05T06:39:21.855Z,26.19
2022-08-05T06:41:51.284Z,26.16
2022-08-05T06:44:18.555Z,26.14
2022-08-05T06:46:51.273Z,26.14
2022-08-05T06:49:18.826Z,26.10
2022-08-05T06:51:47.771Z,26.08
2022-08-05T06:54:18.240Z,26.07
2022-08-05T06:56:54.976Z,26.09
2022-08-05T06:59:38.703Z,26.14
2022-08-05T07:02:08.596Z,26.28
2022-08-05T07:04:34.977Z,26.15
2022-08-05T07:07:02.771Z,26.06
2022-08-05T07:09:40.576Z,25.98
2022-08-05T07:12:09.719Z,25.92
2022-08-05T07:14:36.922Z,25.88
2022-08-05T07:18:00.754Z,25.90
2022-08-05T07:20:32.279Z,25.99
2022-08-05T07:22:36.481Z,26.03
2022-08-05T07:25:23.869Z,25.97
2022-08-05T07:27:57.949Z,26.02
2022-08-05T07:30:33.393Z,25.94
2022-08-05T07:33:00.737Z,25.93
2022-08-05T07:36:01.693Z,26.03
2022-08-05T07:38:26.470Z,26.12
2022-08-05T07:41:16.894Z,26.41
2022-08-05T07:43:46.321Z,26.37
2022-08-05T07:46:18.908Z,26.27
2022-08-05T07:49:02.408Z,26.21
2022-08-05T07:51:37.371Z,26.15
2022-08-05T07:54:08.389Z,26.14
2022-08-05T07:56:39.245Z,26.28
2022-08-05T07:59:31.121Z,26.30
2022-08-05T08:02:06.341Z,26.39
2022-08-05T08:04:41.670Z,26.48
2022-08-05T08:07:08.168Z,26.39
2022-08-05T08:09:34.492Z,26.26
2022-08-05T08:12:09.167Z,26.23
2022-08-05T08:14:40.907Z,26.24
2022-08-05T08:17:07.208Z,26.27
2022-08-05T08:20:10.232Z,26.23
2022-08-05T08:22:21.213Z,26.19
2022-08-05T08:24:53.364Z,26.15
2022-08-05T08:27:19.730Z,26.19
2022-08-05T08:30:05.466Z,26.30
2022-08-05T08:32:32.669Z,26.47
2022-08-05T08:35:05.324Z,26.51
2022-08-05T08:37:40.189Z,26.69
2022-08-05T08:40:11.631Z,26.78
2022-08-05T08:42:50.663Z,26.75
2022-08-05T08:45:26.992Z,27.31
2022-08-05T08:48:10.711Z,27.87
2022-08-05T08:51:03.438Z,27.64
2022-08-05T08:53:30.063Z,27.16
2022-08-05T08:56:04.015Z,26.93
2022-08-05T08:58:36.971Z,26.87
2022-08-05T09:01:11.099Z,26.97
2022-08-05T09:03:45.257Z,27.27
2022-08-05T09:06:13.864Z,27.44
2022-08-05T09:08:45.066Z,27.40
2022-08-05T09:11:12.212Z,27.40
2022-08-05T09:14:01.254Z,27.22
2022-08-05T09:16:26.921Z,27.13
2022-08-05T09:18:53.392Z,27.29
2022-08-05T09:22:21.772Z,27.38
2022-08-05T09:24:08.253Z,27.40
2022-08-05T09:26:36.717Z,27.37
2022-08-05T09:29:03.052Z,27.27
2022-08-05T09:32:39.863Z,27.23
2022-08-05T09:34:15.924Z,27.23
2022-08-05T09:36:53.979Z,27.22
2022-08-05T09:39:22.387Z,27.25
2022-08-05T09:41:56.147Z,27.22
2022-08-05T09:44:22.813Z,27.27
2022-08-05T09:46:53.479Z,27.34
2022-08-05T09:49:20.168Z,27.31
2022-08-05T09:51:48.834Z,27.28
2022-08-05T09:54:16.346Z,27.30
2022-08-05T09:56:55.469Z,27.32
2022-08-05T09:59:24.104Z,27.35
2022-08-05T10:01:58.192Z,27.41
2022-08-05T10:04:28.531Z,27.44
2022-08-05T10:06:59.341Z,27.42
2022-08-05T10:09:29.532Z,27.38
2022-08-05T10:11:56.557Z,27.41
2022-08-05T10:14:25.056Z,27.44
2022-08-05T10:16:53.523Z,27.42
2022-08-05T10:19:23.427Z,27.41
2022-08-05T10:21:58.502Z,27.40
2022-08-05T10:24:25.079Z,27.37
2022-08-05T10:26:53.648Z,27.42
2022-08-05T10:29:24.154Z,27.53
2022-08-05T10:32:52.055Z,27.58
2022-08-05T10:34:52.585Z,27.64
2022-08-05T10:37:22.264Z,27.68
2022-08-05T10:40:03.039Z,27.71
2022-08-05T10:42:39.432Z,27.70
2022-08-05T10:45:24.050Z,27.73
2022-08-05T10:48:31.588Z,27.77
2022-08-05T10:50:42.700Z,27.78
2022-08-05T10:53:10.339Z,27.82
2022-08-05T10:56:03.528Z,27.85
2022-08-05T10:58:23.074Z,27.90
2022-08-05T11:01:02.991Z,27.92
2022-08-05T11:03:29.515Z,27.86
2022-08-05T11:05:56.137Z,27.84
2022-08-05T11:08:39.160Z,27.84
2022-08-05T11:11:14.620Z,27.89
2022-08-05T11:13:55.134Z,27.92
2022-08-05T11:16:33.907Z,27.93
2022-08-05T11:20:10.224Z,27.91
2022-08-05T11:21:57.877Z,27.93
2022-08-05T11:24:30.191Z,27.95
2022-08-05T11:26:57.285Z,27.92
2022-08-05T11:29:25.238Z,27.89
2022-08-05T11:31:57.004Z,27.85
2022-08-05T11:34:27.222Z,27.82
2022-08-05T11:36:54.918Z,27.77
2022-08-05T11:39:23.339Z,27.73
2022-08-05T11:42:01.335Z,27.70
2022-08-05T11:44:53.123Z,27.68
2022-08-05T11:47:21.770Z,27.69
2022-08-05T11:49:49.843Z,27.69
2022-08-05T11:52:17.447Z,27.66
2022-08-05T11:54:54.809Z,27.63
2022-08-05T11:57:26.036Z,27.58
2022-08-05T11:59:57.105Z,27.55
2022-08-05T12:02:31.485Z,27.54
2022-08-05T12:05:00.074Z,27.53
2022-08-05T12:08:04.437Z,27.52
2022-08-05T12:10:13.241Z,27.52
2022-08-05T12:12:40.150Z,27.44
2022-08-05T12:15:35.902Z,27.48
2022-08-05T12:18:11.019Z,27.43
2022-08-05T12:20:38.456Z,27.43
2022-08-05T12:23:05.185Z,27.44
2022-08-05T12:25:31.509Z,27.42
2022-08-05T12:27:58.424Z,27.37
2022-08-05T12:30:29.116Z,27.33
2022-08-05T12:33:07.206Z,27.31
2022-08-05T12:35:45.423Z,27.25
2022-08-05T12:38:15.165Z,27.23
2022-08-05T12:40:44.162Z,27.19
2022-08-05T12:43:10.617Z,27.15
2022-08-05T12:45:48.196Z,27.13
2022-08-05T12:48:26.990Z,27.08
2022-08-05T12:50:54.458Z,27.05
2022-08-05T12:53:20.939Z,27.00
2022-08-05T12:56:03.545Z,26.96
2022-08-05T12:58:49.789Z,26.91
2022-08-05T13:02:02.596Z,26.89
2022-08-05T13:04:03.148Z,26.87
2022-08-05T13:06:33.987Z,26.82
2022-08-05T13:09:00.430Z,26.78
2022-08-05T13:12:01.139Z,26.72
2022-08-05T13:14:14.724Z,26.69
2022-08-05T13:16:41.268Z,26.66
2022-08-05T13:19:08.359Z,26.65
2022-08-05T13:21:37.887Z,26.62
2022-08-05T13:24:14.454Z,26.57
2022-08-05T13:26:54.313Z,26.55
2022-08-05T13:29:37.662Z,26.51
2022-08-05T13:32:05.492Z,26.45
2022-08-05T13:34:32.750Z,26.38
2022-08-05T13:36:59.119Z,26.33
2022-08-05T13:40:15.905Z,26.29
2022-08-05T13:42:14.521Z,26.27
2022-08-05T13:44:45.410Z,26.24
2022-08-05T13:47:34.928Z,26.21
2022-08-05T13:49:58.913Z,26.20
2022-08-05T13:52:29.052Z,26.23
2022-08-05T13:54:56.074Z,26.31
2022-08-05T13:57:22.684Z,26.39
2022-08-05T13:59:55.361Z,26.46
2022-08-05T14:02:26.489Z,26.52
2022-08-05T14:04:56.128Z,26.56
2022-08-05T14:08:00.206Z,26.63
2022-08-05T14:10:14.013Z,26.71
2022-08-05T14:12:48.475Z,26.77
2022-08-05T14:16:09.005Z,26.79
2022-08-05T14:18:01.769Z,26.82
2022-08-05T14:20:30.372Z,26.85
2022-08-05T14:22:56.693Z,26.87
2022-08-05T14:25:28.126Z,26.88
2022-08-05T14:27:56.377Z,26.90
2022-08-05T14:30:26.679Z,26.92
2022-08-05T14:32:54.303Z,26.93
2022-08-05T14:35:23.147Z,26.94
2022-08-05T14:37:53.554Z,26.92
2022-08-05T14:40:21.723Z,26.93
2022-08-05T14:42:50.868Z,26.94
2022-08-05T14:45:18.180Z,26.95
2022-08-05T14:48:04.115Z,26.94
2022-08-05T14:50:31.851Z,26.92
2022-08-05T14:52:58.604Z,26.91
2022-08-05T14:55:38.443Z,26.93
2022-08-05T14:58:11.017Z,26.94
2022-08-05T15:00:37.849Z,26.96
2022-08-05T15:03:04.920Z,26.98
2022-08-05T15:06:08.315Z,26.99
2022-08-05T15:08:58.075Z,26.99
2022-08-05T15:11:08.519Z,26.99
2022-08-05T15:13:44.909Z,27.00
2022-08-05T15:16:13.311Z,26.99
2022-08-05T15:18:39.883Z,27.03
2022-08-05T15:21:08.270Z,27.05
2022-08-05T15:23:34.771Z,27.07
2022-08-05T15:26:04.344Z,27.08
2022-08-05T15:28:33.777Z,27.09
2022-08-05T15:31:00.123Z,27.10
2022-08-05T15:34:19.494Z,27.13
2022-08-05T15:36:17.214Z,27.14
2022-08-05T15:38:50.798Z,27.15
2022-08-05T15:41:55.940Z,27.14
2022-08-05T15:44:23.457Z,27.16
2022-08-05T15:46:50.688Z,27.16
2022-08-05T15:49:27.328Z,27.15
2022-08-05T15:52:13.518Z,27.14
2022-08-05T15:54:43.398Z,27.16
2022-08-05T15:57:09.809Z,27.20
2022-08-05T15:59:36.148Z,27.19
2022-08-05T16:02:04.694Z,27.21
2022-08-05T16:04:36.337Z,27.18
2022-08-05T16:07:02.742Z,27.18
2022-08-05T16:09:32.266Z,27.19
2022-08-05T16:11:59.243Z,27.19
2022-08-05T16:14:25.670Z,27.20
2022-08-05T16:16:52.021Z,27.23
2022-08-05T16:20:03.489Z,27.22
2022-08-05T16:22:05.233Z,27.23
2022-08-05T16:24:39.897Z,27.23
2022-08-05T16:27:08.786Z,27.24
2022-08-05T16:29:37.260Z,27.24
2022-08-05T16:32:04.631Z,27.25
2022-08-05T16:34:31.040Z,27.26
2022-08-05T16:36:57.366Z,27.27
2022-08-05T16:40:04.775Z,27.26
2022-08-05T16:42:14.114Z,27.28
2022-08-05T16:44:44.445Z,27.29
2022-08-05T16:47:28.584Z,27.28
2022-08-05T16:50:02.778Z,27.28
2022-08-05T16:52:32.599Z,27.27
2022-08-05T16:55:00.264Z,27.27
2022-08-05T16:57:30.161Z,27.27
2022-08-05T17:00:14.316Z,27.26
2022-08-05T17:02:52.677Z,27.26
2022-08-05T17:05:18.952Z,27.25
2022-08-05T17:07:53.017Z,27.25
2022-08-05T17:10:21.762Z,27.25
2022-08-05T17:12:53.142Z,27.24
2022-08-05T17:15:19.921Z,27.23
2022-08-05T17:17:48.892Z,27.24
2022-08-05T17:20:21.235Z,27.23
2022-08-05T17:22:47.535Z,27.23
2022-08-05T17:25:33.922Z,27.22
2022-08-05T17:28:06.614Z,27.20
2022-08-05T17:30:39.749Z,27.19
2022-08-05T17:33:16.574Z,27.18
2022-08-05T17:36:08.139Z,27.18
2022-08-05T17:38:29.875Z,27.18
2022-08-05T17:40:58.706Z,27.18
2022-08-05T17:43:46.891Z,27.17
2022-08-05T17:46:12.258Z,27.15
2022-08-05T17:48:40.246Z,27.14
2022-08-05T17:51:10.295Z,27.13
2022-08-05T17:53:39.245Z,27.11
2022-08-05T17:56:06.310Z,27.10
2022-08-05T17:58:32.924Z,27.09
2022-08-05T18:00:59.337Z,27.07
2022-08-05T18:03:58.837Z,27.06
2022-08-05T18:06:15.200Z,27.05
2022-08-05T18:08:44.222Z,27.04
2022-08-05T18:11:23.996Z,27.03
2022-08-05T18:13:59.582Z,27.01
2022-08-05T18:16:26.202Z,27.00
2022-08-05T18:18:52.593Z,26.96
2022-08-05T18:21:20.075Z,26.91
2022-08-05T18:23:49.123Z,26.85
2022-08-05T18:26:20.395Z,26.77
2022-08-05T18:28:46.743Z,26.70
2022-08-05T18:31:15.899Z,26.63
2022-08-05T18:33:47.141Z,26.54
2022-08-05T18:36:16.194Z,26.46
2022-08-05T18:38:43.225Z,26.39
2022-08-05T18:41:53.710Z,26.31
2022-08-05T18:43:56.835Z,26.24
2022-08-05T18:46:32.354Z,26.17
2022-08-05T18:48:59.225Z,26.12
2022-08-05T18:52:05.359Z,26.05
2022-08-05T18:54:12.477Z,25.97
2022-08-05T18:56:39.783Z,25.90
2022-08-05T18:59:50.667Z,25.82
2022-08-05T19:01:57.978Z,25.74
2022-08-05T19:04:27.872Z,25.68
2022-08-05T19:06:54.447Z,25.61
2022-08-05T19:09:21.322Z,25.55
2022-08-05T19:12:00.346Z,25.51
2022-08-05T19:14:44.672Z,25.48
2022-08-05T19:17:14.546Z,25.45
2022-08-05T19:19:46.340Z,25.40
2022-08-05T19:22:13.454Z,25.36
2022-08-05T19:24:55.821Z,25.29
2022-08-05T19:27:22.993Z,25.22
2022-08-05T19:29:49.511Z,25.16
2022-08-05T19:32:15.885Z,25.11
2022-08-05T19:34:42.488Z,25.08
2022-08-05T19:37:22.217Z,25.01
2022-08-05T19:39:56.536Z,24.97
2022-08-05T19:42:35.803Z,24.93
2022-08-05T19:45:02.596Z,24.88
2022-08-05T19:47:32.103Z,24.85
2022-08-05T19:50:00.402Z,24.80
2022-08-05T19:52:31.441Z,24.79
2022-08-05T19:55:00.464Z,24.78
2022-08-05T19:57:47.708Z,24.76
2022-08-05T20:00:20.751Z,24.71
2022-08-05T20:02:47.358Z,24.66
2022-08-05T20:05:16.411Z,24.61
2022-08-05T20:07:53.873Z,24.56
2022-08-05T20:10:24.446Z,24.51
2022-08-05T20:12:51.437Z,24.46
2022-08-05T20:15:47.727Z,24.44
2022-08-05T20:18:10.114Z,24.40
2022-08-05T20:20:55.277Z,24.37
2022-08-05T20:23:23.209Z,24.32
2022-08-05T20:25:52.229Z,24.27
2022-08-05T20:28:18.786Z,24.22
2022-08-05T20:30:45.207Z,24.16
2022-08-05T20:33:14.262Z,24.11
2022-08-05T20:35:45.548Z,24.04
2022-08-05T20:38:14.446Z,23.97
2022-08-05T20:40:50.533Z,23.91
2022-08-05T20:43:17.026Z,23.87
2022-08-05T20:46:00.204Z,23.85
2022-08-05T20:48:26.850Z,23.83
2022-08-05T20:50:53.212Z,23.80
2022-08-05T20:53:36.885Z,23.76
2022-08-05T20:56:08.825Z,23.72
2022-08-05T20:58:35.558Z,23.69
2022-08-05T21:01:02.389Z,23.66
2022-08-05T21:03:29.633Z,23.62
2022-08-05T21:06:01.303Z,23.57
2022-08-05T21:08:35.959Z,23.54
2022-08-05T21:11:11.564Z,23.50
2022-08-05T21:13:47.945Z,23.45
2022-08-05T21:16:23.129Z,23.30
2022-08-05T21:18:56.645Z,23.18
2022-08-05T21:21:26.619Z,23.07
2022-08-05T21:24:06.210Z,22.97
2022-08-05T21:26:32.655Z,22.89
2022-08-05T21:29:03.879Z,22.80
2022-08-05T21:31:41.590Z,22.71
2022-08-05T21:34:08.437Z,22.65
2022-08-05T21:36:37.047Z,22.56
2022-08-05T21:39:03.495Z,22.48
2022-08-05T21:41:32.890Z,22.42
2022-08-05T21:44:03.819Z,22.33
2022-08-05T21:46:30.885Z,22.28
2022-08-05T21:48:57.264Z,22.21
2022-08-05T21:52:21.903Z,22.16
2022-08-05T21:54:12.749Z,22.07
2022-08-05T21:56:44.490Z,22.01
2022-08-05T21:59:24.262Z,21.93
2022-08-05T22:01:51.525Z,21.85
2022-08-05T22:04:21.301Z,21.77
2022-08-05T22:06:51.884Z,21.69
2022-08-05T22:09:21.077Z,21.59
2022-08-05T22:11:48.637Z,21.48
2022-08-05T22:14:34.118Z,21.40
2022-08-05T22:17:05.030Z,21.31
2022-08-05T22:20:02.180Z,21.25
2022-08-05T22:22:27.237Z,21.17
2022-08-05T22:24:55.957Z,21.09
2022-08-05T22:27:22.461Z,21.05
2022-08-05T22:29:49.274Z,21.01
2022-08-05T22:32:20.751Z,20.95
2022-08-05T22:34:49.371Z,20.92
2022-08-05T22:37:15.740Z,20.84
2022-08-05T22:39:42.129Z,20.76
2022-08-05T22:42:15.329Z,20.67
2022-08-05T22:44:42.751Z,20.60
2022-08-05T22:47:15.090Z,20.53
2022-08-05T22:50:19.664Z,20.50
2022-08-05T22:52:42.849Z,20.46
2022-08-05T22:55:19.274Z,20.43
2022-08-05T22:57:46.350Z,20.38
2022-08-05T23:00:12.627Z,20.36
2022-08-05T23:02:46.883Z,20.28
2022-08-05T23:05:13.947Z,20.22
2022-08-05T23:07:44.097Z,20.17
2022-08-05T23:10:15.172Z,20.16
2022-08-05T23:12:43.776Z,20.13
2022-08-05T23:15:10.367Z,20.11
2022-08-05T23:18:00.509Z,20.08
2022-08-05T23:20:25.184Z,20.04
2022-08-05T23:22:56.044Z,19.97
2022-08-05T23:25:53.007Z,19.95
2022-08-05T23:28:09.348Z,19.88
2022-08-05T23:30:40.648Z,19.81
2022-08-05T23:33:16.001Z,19.78
2022-08-05T23:35:43.335Z,19.75
2022-08-05T23:38:12.170Z,19.72
2022-08-05T23:40:42.373Z,19.68
2022-08-05T23:49:00.769Z,19.55
2022-08-05T23:51:28.409Z,19.50
2022-08-05T23:54:01.114Z,19.45
2022-08-05T23:56:27.799Z,19.41
2022-08-05T23:58:54.184Z,19.36
